sensor_id;sensor_type;location;lat;lon;timestamp;pressure;altitude;pressure_sealevel;temperature;humidity
52105;BME280;38103;42.776;23.112;2023-04-02T00:01:42;93084.75;;;3.89;100.00
52105;BME280;38103;42.776;23.112;2023-04-02T00:04:19;93093.16;;;3.91;100.00
52105;BME280;38103;42.776;23.112;2023-04-02T00:06:55;93090.75;;;3.89;100.00
52105;BME280;38103;42.776;23.112;2023-04-02T00:09:40;93088.41;;;3.81;100.00
52105;BME280;38103;42.776;23.112;2023-04-02T00:12:17;93098.59;;;3.89;100.00
52105;BME280;38103;42.776;23.112;2023-04-02T00:14:53;93093.09;;;3.98;100.00
52105;BME280;38103;42.776;23.112;2023-04-02T00:17:22;93097.91;;;4.01;100.00
52105;BME280;38103;42.776;23.112;2023-04-02T00:19:53;93102.34;;;4.00;100.00
52105;BME280;38103;42.776;23.112;2023-04-02T00:22:25;93091.94;;;3.94;100.00
52105;BME280;38103;42.776;23.112;2023-04-02T00:24:53;93089.31;;;3.94;100.00
52105;BME280;38103;42.776;23.112;2023-04-02T00:27:20;93085.09;;;3.93;100.00
52105;BME280;38103;42.776;23.112;2023-04-02T00:29:54;93046.84;;;3.73;100.00
52105;BME280;38103;42.776;23.112;2023-04-02T00:32:28;93081.47;;;3.94;100.00
52105;BME280;38103;42.776;23.112;2023-04-02T00:34:55;93032.63;;;3.68;100.00
52105;BME280;38103;42.776;23.112;2023-04-02T00:37:23;93045.81;;;3.74;100.00
52105;BME280;38103;42.776;23.112;2023-04-02T00:39:57;93083.59;;;4.04;100.00
52105;BME280;38103;42.776;23.112;2023-04-02T00:42:25;93037.13;;;3.80;100.00
52105;BME280;38103;42.776;23.112;2023-04-02T00:44:53;93014.22;;;3.56;100.00
52105;BME280;38103;42.776;23.112;2023-04-02T00:47:23;93077.09;;;3.87;100.00
52105;BME280;38103;42.776;23.112;2023-04-02T00:49:57;93070.28;;;3.86;100.00
52105;BME280;38103;42.776;23.112;2023-04-02T00:52:27;93079.88;;;3.93;100.00
52105;BME280;38103;42.776;23.112;2023-04-02T00:57:31;93089.06;;;4.02;100.00
52105;BME280;38103;42.776;23.112;2023-04-02T01:02:29;93085.13;;;4.11;100.00
52105;BME280;38103;42.776;23.112;2023-04-02T01:05:00;93090.94;;;4.13;100.00
52105;BME280;38103;42.776;23.112;2023-04-02T01:07:58;93092.75;;;4.13;100.00
52105;BME280;38103;42.776;23.112;2023-04-02T01:13:06;93086.00;;;4.05;100.00
52105;BME280;38103;42.776;23.112;2023-04-02T01:15:41;93085.09;;;3.93;100.00
52105;BME280;38103;42.776;23.112;2023-04-02T01:23:47;93095.06;;;4.02;100.00
52105;BME280;38103;42.776;23.112;2023-04-02T01:26:41;93098.81;;;3.88;100.00
52105;BME280;38103;42.776;23.112;2023-04-02T01:29:16;93101.38;;;3.95;100.00
52105;BME280;38103;42.776;23.112;2023-04-02T01:31:44;93104.63;;;3.90;100.00
52105;BME280;38103;42.776;23.112;2023-04-02T01:34:13;93105.59;;;3.96;100.00
52105;BME280;38103;42.776;23.112;2023-04-02T01:44:40;93107.50;;;4.07;100.00
52105;BME280;38103;42.776;23.112;2023-04-02T01:47:12;93106.66;;;4.13;100.00
52105;BME280;38103;42.776;23.112;2023-04-02T01:49:41;93062.94;;;3.95;100.00
52105;BME280;38103;42.776;23.112;2023-04-02T01:52:06;93079.16;;;4.04;100.00
52105;BME280;38103;42.776;23.112;2023-04-02T01:54:33;93122.66;;;4.24;100.00
52105;BME280;38103;42.776;23.112;2023-04-02T01:56:59;93106.53;;;4.27;100.00
52105;BME280;38103;42.776;23.112;2023-04-02T01:59:25;93103.44;;;4.11;100.00
52105;BME280;38103;42.776;23.112;2023-04-02T02:01:56;93103.44;;;4.11;100.00
52105;BME280;38103;42.776;23.112;2023-04-02T02:04:23;93073.38;;;4.02;100.00
52105;BME280;38103;42.776;23.112;2023-04-02T02:06:49;93095.69;;;4.23;100.00
52105;BME280;38103;42.776;23.112;2023-04-02T02:09:19;93035.69;;;3.84;100.00
52105;BME280;38103;42.776;23.112;2023-04-02T02:11:47;93094.88;;;4.23;100.00
52105;BME280;38103;42.776;23.112;2023-04-02T02:14:24;93092.09;;;4.18;100.00
52105;BME280;38103;42.776;23.112;2023-04-02T02:16:52;93087.28;;;3.96;100.00
52105;BME280;38103;42.776;23.112;2023-04-02T02:21:53;93082.31;;;3.62;100.00
52105;BME280;38103;42.776;23.112;2023-04-02T02:26:48;93082.72;;;3.65;100.00
52105;BME280;38103;42.776;23.112;2023-04-02T02:29:16;93065.25;;;3.59;100.00
52105;BME280;38103;42.776;23.112;2023-04-02T02:31:44;93080.09;;;3.65;100.00
52105;BME280;38103;42.776;23.112;2023-04-02T02:34:17;93049.81;;;3.51;100.00
52105;BME280;38103;42.776;23.112;2023-04-02T02:36:55;93079.81;;;3.74;100.00
52105;BME280;38103;42.776;23.112;2023-04-02T02:39:28;93085.31;;;3.65;100.00
52105;BME280;38103;42.776;23.112;2023-04-02T02:42:48;93090.91;;;3.69;100.00
52105;BME280;38103;42.776;23.112;2023-04-02T02:44:50;93081.25;;;3.69;100.00
52105;BME280;38103;42.776;23.112;2023-04-02T02:47:27;93090.88;;;3.76;100.00
52105;BME280;38103;42.776;23.112;2023-04-02T02:49:55;93087.22;;;3.77;100.00
52105;BME280;38103;42.776;23.112;2023-04-02T02:52:30;93081.34;;;3.82;100.00
52105;BME280;38103;42.776;23.112;2023-04-02T02:55:00;93042.59;;;3.53;100.00
52105;BME280;38103;42.776;23.112;2023-04-02T02:57:33;93038.03;;;3.41;100.00
52105;BME280;38103;42.776;23.112;2023-04-02T03:00:02;93087.66;;;3.74;100.00
52105;BME280;38103;42.776;23.112;2023-04-02T03:02:35;93087.06;;;3.72;100.00
52105;BME280;38103;42.776;23.112;2023-04-02T03:05:01;93088.41;;;3.81;100.00
52105;BME280;38103;42.776;23.112;2023-04-02T03:07:27;93091.63;;;3.83;100.00
52105;BME280;38103;42.776;23.112;2023-04-02T03:10:20;93094.41;;;3.88;100.00
52105;BME280;38103;42.776;23.112;2023-04-02T03:13:19;93090.44;;;3.79;100.00
52105;BME280;38103;42.776;23.112;2023-04-02T03:23:40;93096.03;;;4.08;100.00
52105;BME280;38103;42.776;23.112;2023-04-02T03:26:16;93093.84;;;4.05;100.00
52105;BME280;38103;42.776;23.112;2023-04-02T03:28:46;93057.47;;;3.78;100.00
52105;BME280;38103;42.776;23.112;2023-04-02T03:34:00;93086.72;;;3.94;100.00
52105;BME280;38103;42.776;23.112;2023-04-02T03:36:41;93089.53;;;3.92;100.00
52105;BME280;38103;42.776;23.112;2023-04-02T03:39:36;93095.88;;;4.03;100.00
52105;BME280;38103;42.776;23.112;2023-04-02T03:42:16;93099.81;;;4.12;100.00
52105;BME280;38103;42.776;23.112;2023-04-02T03:45:10;93099.31;;;3.78;100.00
52105;BME280;38103;42.776;23.112;2023-04-02T03:47:38;93074.44;;;3.68;100.00
52105;BME280;38103;42.776;23.112;2023-04-02T03:52:58;93100.28;;;3.84;100.00
52105;BME280;38103;42.776;23.112;2023-04-02T03:55:27;93100.59;;;3.68;100.00
52105;BME280;38103;42.776;23.112;2023-04-02T04:00:23;93097.28;;;3.80;100.00
52105;BME280;38103;42.776;23.112;2023-04-02T04:02:58;93093.59;;;3.88;100.00
52105;BME280;38103;42.776;23.112;2023-04-02T04:05:46;93095.66;;;3.79;100.00
52105;BME280;38103;42.776;23.112;2023-04-02T04:08:16;93102.16;;;3.69;100.00
52105;BME280;38103;42.776;23.112;2023-04-02T04:10:43;93097.66;;;3.84;100.00
52105;BME280;38103;42.776;23.112;2023-04-02T04:13:12;93095.97;;;3.89;100.00
52105;BME280;38103;42.776;23.112;2023-04-02T04:15:46;93101.66;;;3.86;100.00
52105;BME280;38103;42.776;23.112;2023-04-02T04:20:55;93105.81;;;3.68;100.00
52105;BME280;38103;42.776;23.112;2023-04-02T04:23:39;93112.16;;;3.79;100.00
52105;BME280;38103;42.776;23.112;2023-04-02T04:26:20;93113.28;;;3.90;100.00
52105;BME280;38103;42.776;23.112;2023-04-02T04:31:45;93122.09;;;3.96;100.00
52105;BME280;38103;42.776;23.112;2023-04-02T04:34:28;93106.41;;;3.96;100.00
52105;BME280;38103;42.776;23.112;2023-04-02T04:37:04;93110.50;;;3.85;100.00
52105;BME280;38103;42.776;23.112;2023-04-02T04:42:33;93122.66;;;4.24;100.00
52105;BME280;38103;42.776;23.112;2023-04-02T04:45:07;93117.31;;;4.38;100.00
52105;BME280;38103;42.776;23.112;2023-04-02T04:47:39;93116.16;;;4.71;100.00
52105;BME280;38103;42.776;23.112;2023-04-02T04:50:16;93119.69;;;5.14;100.00
52105;BME280;38103;42.776;23.112;2023-04-02T04:52:43;93120.47;;;5.46;100.00
52105;BME280;38103;42.776;23.112;2023-04-02T04:55:27;93124.13;;;6.00;100.00
52105;BME280;38103;42.776;23.112;2023-04-02T04:57:57;93125.56;;;6.39;99.73
52105;BME280;38103;42.776;23.112;2023-04-02T05:03:43;93125.53;;;6.63;96.65
52105;BME280;38103;42.776;23.112;2023-04-02T05:09:19;93115.09;;;7.80;91.96
52105;BME280;38103;42.776;23.112;2023-04-02T05:11:59;93074.56;;;8.15;91.30
52105;BME280;38103;42.776;23.112;2023-04-02T05:14:34;93122.31;;;8.99;88.37
52105;BME280;38103;42.776;23.112;2023-04-02T05:17:13;93127.81;;;9.42;69.93
52105;BME280;38103;42.776;23.112;2023-04-02T05:19:44;93119.75;;;9.82;69.24
52105;BME280;38103;42.776;23.112;2023-04-02T05:22:19;93129.63;;;10.25;67.40
52105;BME280;38103;42.776;23.112;2023-04-02T05:24:57;93128.78;;;10.57;66.11
52105;BME280;38103;42.776;23.112;2023-04-02T05:27:46;93134.72;;;10.75;63.93
52105;BME280;38103;42.776;23.112;2023-04-02T05:33:01;93145.28;;;10.04;64.51
52105;BME280;38103;42.776;23.112;2023-04-02T05:35:32;93149.50;;;10.00;65.22
52105;BME280;38103;42.776;23.112;2023-04-02T05:37:59;93111.53;;;9.78;65.51
52105;BME280;38103;42.776;23.112;2023-04-02T05:40:40;93107.28;;;10.05;66.36
52105;BME280;38103;42.776;23.112;2023-04-02T05:43:08;93092.13;;;10.28;63.69
52105;BME280;38103;42.776;23.112;2023-04-02T05:45:36;93137.41;;;10.86;63.88
52105;BME280;38103;42.776;23.112;2023-04-02T05:48:31;93137.84;;;11.21;62.03
52105;BME280;38103;42.776;23.112;2023-04-02T05:50:56;93137.75;;;11.69;60.37
52105;BME280;38103;42.776;23.112;2023-04-02T05:53:31;93133.53;;;11.94;58.41
52105;BME280;38103;42.776;23.112;2023-04-02T05:56:10;93141.00;;;12.39;56.98
52105;BME280;38103;42.776;23.112;2023-04-02T05:58:44;93142.53;;;12.77;56.75
52105;BME280;38103;42.776;23.112;2023-04-02T06:04:30;93144.38;;;13.69;52.56
52105;BME280;38103;42.776;23.112;2023-04-02T06:07:10;93144.19;;;14.01;51.77
52105;BME280;38103;42.776;23.112;2023-04-02T06:09:44;93147.22;;;14.24;50.73
52105;BME280;38103;42.776;23.112;2023-04-02T06:12:35;93151.81;;;14.48;49.48
52105;BME280;38103;42.776;23.112;2023-04-02T06:15:02;93146.84;;;15.01;48.33
52105;BME280;38103;42.776;23.112;2023-04-02T06:17:27;93154.66;;;15.41;48.56
52105;BME280;38103;42.776;23.112;2023-04-02T06:19:55;93148.00;;;15.82;45.21
52105;BME280;38103;42.776;23.112;2023-04-02T06:24:50;93146.38;;;16.06;44.90
52105;BME280;38103;42.776;23.112;2023-04-02T06:27:20;93150.41;;;16.23;43.83
52105;BME280;38103;42.776;23.112;2023-04-02T06:29:50;93134.81;;;16.30;43.05
52105;BME280;38103;42.776;23.112;2023-04-02T06:32:22;93142.75;;;16.35;43.06
52105;BME280;38103;42.776;23.112;2023-04-02T06:34:48;93147.00;;;16.36;42.65
52105;BME280;38103;42.776;23.112;2023-04-02T06:39:47;93147.97;;;16.07;43.85
52105;BME280;38103;42.776;23.112;2023-04-02T06:42:17;93141.91;;;16.21;43.84
52105;BME280;38103;42.776;23.112;2023-04-02T06:44:43;93147.28;;;16.35;42.83
52105;BME280;38103;42.776;23.112;2023-04-02T06:49:41;93152.41;;;16.31;42.59
52105;BME280;38103;42.776;23.112;2023-04-02T06:52:17;93156.56;;;15.98;41.62
52105;BME280;38103;42.776;23.112;2023-04-02T06:54:45;93150.47;;;16.17;41.53
52105;BME280;38103;42.776;23.112;2023-04-02T06:57:11;93152.13;;;16.33;43.17
52105;BME280;38103;42.776;23.112;2023-04-02T06:59:37;93158.16;;;16.38;40.63
52105;BME280;38103;42.776;23.112;2023-04-02T07:02:09;93161.72;;;15.95;42.18
52105;BME280;38103;42.776;23.112;2023-04-02T07:04:39;93169.16;;;16.17;42.99
52105;BME280;38103;42.776;23.112;2023-04-02T07:07:04;93173.84;;;16.59;41.97
52105;BME280;38103;42.776;23.112;2023-04-02T07:09:29;93170.41;;;16.39;42.34
52105;BME280;38103;42.776;23.112;2023-04-02T07:11:55;93172.09;;;16.35;41.23
52105;BME280;38103;42.776;23.112;2023-04-02T07:14:20;93156.16;;;16.30;43.50
52105;BME280;38103;42.776;23.112;2023-04-02T07:16:46;93168.94;;;16.67;42.57
52105;BME280;38103;42.776;23.112;2023-04-02T07:19:19;93175.41;;;16.27;40.31
52105;BME280;38103;42.776;23.112;2023-04-02T07:21:46;93186.34;;;16.78;42.79
52105;BME280;38103;42.776;23.112;2023-04-02T07:24:12;93174.56;;;17.13;43.46
52105;BME280;38103;42.776;23.112;2023-04-02T07:26:37;93182.13;;;17.39;41.81
52105;BME280;38103;42.776;23.112;2023-04-02T07:29:06;93177.94;;;17.61;39.96
52105;BME280;38103;42.776;23.112;2023-04-02T07:31:32;93186.09;;;17.41;39.34
52105;BME280;38103;42.776;23.112;2023-04-02T07:33:58;93165.19;;;17.29;41.17
52105;BME280;38103;42.776;23.112;2023-04-02T07:36:25;93188.25;;;16.92;40.54
52105;BME280;38103;42.776;23.112;2023-04-02T07:38:51;93184.78;;;16.91;41.61
52105;BME280;38103;42.776;23.112;2023-04-02T07:41:17;93183.63;;;17.12;42.03
52105;BME280;38103;42.776;23.112;2023-04-02T07:43:44;93187.06;;;16.84;41.81
52105;BME280;38103;42.776;23.112;2023-04-02T07:46:10;93192.31;;;16.56;42.38
52105;BME280;38103;42.776;23.112;2023-04-02T07:48:36;93193.44;;;16.69;42.27
52105;BME280;38103;42.776;23.112;2023-04-02T07:51:01;93198.41;;;16.75;43.34
52105;BME280;38103;42.776;23.112;2023-04-02T07:53:34;93194.91;;;16.61;43.97
52105;BME280;38103;42.776;23.112;2023-04-02T07:56:03;93143.75;;;16.01;43.31
52105;BME280;38103;42.776;23.112;2023-04-02T07:58:30;93200.69;;;16.49;43.45
52105;BME280;38103;42.776;23.112;2023-04-02T08:00:56;93163.16;;;16.06;43.14
52105;BME280;38103;42.776;23.112;2023-04-02T08:03:22;93201.53;;;15.86;46.22
52105;BME280;38103;42.776;23.112;2023-04-02T08:05:56;93203.53;;;15.75;45.09
52105;BME280;38103;42.776;23.112;2023-04-02T08:08:23;93207.47;;;15.78;44.60
52105;BME280;38103;42.776;23.112;2023-04-02T08:10:49;93203.19;;;15.82;43.59
52105;BME280;38103;42.776;23.112;2023-04-02T08:13:16;93191.66;;;15.86;43.95
52105;BME280;38103;42.776;23.112;2023-04-02T08:15:42;93200.53;;;15.82;44.49
52105;BME280;38103;42.776;23.112;2023-04-02T08:18:08;93195.69;;;15.84;44.58
52105;BME280;38103;42.776;23.112;2023-04-02T08:20:34;93209.59;;;16.05;45.15
52105;BME280;38103;42.776;23.112;2023-04-02T08:23:00;93209.59;;;15.81;46.19
52105;BME280;38103;42.776;23.112;2023-04-02T08:25:26;93212.06;;;15.96;46.03
52105;BME280;38103;42.776;23.112;2023-04-02T08:27:51;93210.63;;;16.24;46.78
52105;BME280;38103;42.776;23.112;2023-04-02T08:30:17;93210.16;;;16.41;44.09
52105;BME280;38103;42.776;23.112;2023-04-02T08:32:43;93211.78;;;16.56;43.79
52105;BME280;38103;42.776;23.112;2023-04-02T08:35:11;93213.34;;;16.57;45.01
52105;BME280;38103;42.776;23.112;2023-04-02T08:37:36;93208.53;;;16.59;42.61
52105;BME280;38103;42.776;23.112;2023-04-02T08:40:03;93205.72;;;16.70;45.95
52105;BME280;38103;42.776;23.112;2023-04-02T08:43:17;93221.03;;;16.45;44.47
52105;BME280;38103;42.776;23.112;2023-04-02T08:45:54;93212.94;;;16.50;42.57
52105;BME280;38103;42.776;23.112;2023-04-02T08:48:23;93206.19;;;16.38;43.23
52105;BME280;38103;42.776;23.112;2023-04-02T08:50:49;93211.16;;;16.26;46.92
52105;BME280;38103;42.776;23.112;2023-04-02T08:53:25;93216.28;;;16.41;45.55
52105;BME280;38103;42.776;23.112;2023-04-02T08:59:15;93221.59;;;16.03;44.30
52105;BME280;38103;42.776;23.112;2023-04-02T09:04:30;93187.06;;;15.48;46.22
52105;BME280;38103;42.776;23.112;2023-04-02T09:06:58;93221.41;;;15.74;45.81
52105;BME280;38103;42.776;23.112;2023-04-02T09:09:25;93219.81;;;15.73;43.45
52105;BME280;38103;42.776;23.112;2023-04-02T09:11:56;93222.25;;;15.45;44.87
52105;BME280;38103;42.776;23.112;2023-04-02T09:14:44;93229.78;;;15.38;45.39
52105;BME280;38103;42.776;23.112;2023-04-02T09:17:17;93237.53;;;15.10;45.17
52105;BME280;38103;42.776;23.112;2023-04-02T09:19:52;93232.25;;;15.04;43.67
52105;BME280;38103;42.776;23.112;2023-04-02T09:22:30;93237.00;;;14.72;45.20
52105;BME280;38103;42.776;23.112;2023-04-02T09:25:00;93228.38;;;14.91;46.90
52105;BME280;38103;42.776;23.112;2023-04-02T09:27:29;93187.44;;;14.47;45.46
52105;BME280;38103;42.776;23.112;2023-04-02T09:29:57;93220.75;;;14.39;45.45
52105;BME280;38103;42.776;23.112;2023-04-02T09:35:17;93228.41;;;14.46;45.00
52105;BME280;38103;42.776;23.112;2023-04-02T09:37:43;93223.09;;;14.46;45.17
52105;BME280;38103;42.776;23.112;2023-04-02T09:40:26;93221.06;;;14.32;47.21
52105;BME280;38103;42.776;23.112;2023-04-02T09:43:09;93220.31;;;14.26;46.26
52105;BME280;38103;42.776;23.112;2023-04-02T09:45:36;93215.16;;;14.40;47.74
52105;BME280;38103;42.776;23.112;2023-04-02T09:48:01;93213.50;;;14.50;49.77
52105;BME280;38103;42.776;23.112;2023-04-02T09:50:39;93216.09;;;14.60;47.70
52105;BME280;38103;42.776;23.112;2023-04-02T09:53:30;93211.47;;;14.36;47.73
52105;BME280;38103;42.776;23.112;2023-04-02T09:58:36;93210.88;;;14.45;46.59
52105;BME280;38103;42.776;23.112;2023-04-02T10:01:01;93176.41;;;14.29;47.45
52105;BME280;38103;42.776;23.112;2023-04-02T10:03:30;93205.00;;;14.48;47.54
52105;BME280;38103;42.776;23.112;2023-04-02T10:06:12;93212.94;;;14.53;48.54
52105;BME280;38103;42.776;23.112;2023-04-02T10:08:40;93208.56;;;14.68;50.38
52105;BME280;38103;42.776;23.112;2023-04-02T10:11:16;93201.97;;;14.60;48.75
52105;BME280;38103;42.776;23.112;2023-04-02T10:14:08;93201.25;;;14.49;47.12
52105;BME280;38103;42.776;23.112;2023-04-02T10:16:40;93204.97;;;14.53;49.46
52105;BME280;38103;42.776;23.112;2023-04-02T10:19:31;93201.34;;;14.38;48.91
52105;BME280;38103;42.776;23.112;2023-04-02T10:22:02;93166.25;;;14.36;47.59
52105;BME280;38103;42.776;23.112;2023-04-02T10:24:29;93201.56;;;14.77;45.40
52105;BME280;38103;42.776;23.112;2023-04-02T10:32:28;93196.16;;;14.58;45.08
52105;BME280;38103;42.776;23.112;2023-04-02T10:35:00;93193.22;;;14.59;44.92
52105;BME280;38103;42.776;23.112;2023-04-02T10:47:41;93200.72;;;14.52;44.15
52105;BME280;38103;42.776;23.112;2023-04-02T10:50:30;93199.66;;;14.53;45.51
52105;BME280;38103;42.776;23.112;2023-04-02T10:53:15;93184.69;;;14.62;47.01
52105;BME280;38103;42.776;23.112;2023-04-02T10:55:54;93169.72;;;14.67;46.09
52105;BME280;38103;42.776;23.112;2023-04-02T10:58:24;93186.00;;;14.95;44.82
52105;BME280;38103;42.776;23.112;2023-04-02T11:00:54;93149.38;;;14.87;45.19
52105;BME280;38103;42.776;23.112;2023-04-02T11:03:41;93178.47;;;15.07;46.32
52105;BME280;38103;42.776;23.112;2023-04-02T11:06:22;93171.53;;;15.06;44.15
52105;BME280;38103;42.776;23.112;2023-04-02T11:08:51;93175.25;;;15.05;46.23
52105;BME280;38103;42.776;23.112;2023-04-02T11:11:21;93181.56;;;15.15;44.60
52105;BME280;38103;42.776;23.112;2023-04-02T11:16:23;93121.00;;;15.01;47.11
52105;BME280;38103;42.776;23.112;2023-04-02T11:21:45;93151.59;;;15.28;49.12
52105;BME280;38103;42.776;23.112;2023-04-02T11:27:12;93160.94;;;15.50;41.59
52105;BME280;38103;42.776;23.112;2023-04-02T11:37:09;93154.31;;;15.67;42.17
52105;BME280;38103;42.776;23.112;2023-04-02T11:40:00;93160.75;;;15.66;42.44
52105;BME280;38103;42.776;23.112;2023-04-02T11:42:29;93158.03;;;15.47;41.07
52105;BME280;38103;42.776;23.112;2023-04-02T11:44:59;93159.19;;;15.16;40.28
52105;BME280;38103;42.776;23.112;2023-04-02T11:47:26;93149.16;;;15.07;41.37
52105;BME280;38103;42.776;23.112;2023-04-02T11:55:26;93147.47;;;15.17;43.35
52105;BME280;38103;42.776;23.112;2023-04-02T12:09:27;93154.31;;;15.23;41.43
52105;BME280;38103;42.776;23.112;2023-04-02T12:12:01;93152.72;;;15.22;41.80
52105;BME280;38103;42.776;23.112;2023-04-02T12:14:45;93151.13;;;15.21;41.35
52105;BME280;38103;42.776;23.112;2023-04-02T12:19:55;93155.09;;;14.99;41.96
52105;BME280;38103;42.776;23.112;2023-04-02T12:22:24;93141.09;;;15.13;44.02
52105;BME280;38103;42.776;23.112;2023-04-02T12:24:54;93141.97;;;15.33;40.40
52105;BME280;38103;42.776;23.112;2023-04-02T12:27:23;93141.59;;;15.39;42.96
52105;BME280;38103;42.776;23.112;2023-04-02T12:29:53;93142.47;;;15.35;42.78
52105;BME280;38103;42.776;23.112;2023-04-02T12:32:26;93136.53;;;15.43;42.57
52105;BME280;38103;42.776;23.112;2023-04-02T12:34:52;93132.88;;;15.34;40.13
52105;BME280;38103;42.776;23.112;2023-04-02T12:37:29;93135.03;;;15.32;38.65
52105;BME280;38103;42.776;23.112;2023-04-02T12:39:58;93128.25;;;14.95;42.89
52105;BME280;38103;42.776;23.112;2023-04-02T12:42:32;93105.47;;;14.84;43.11
52105;BME280;38103;42.776;23.112;2023-04-02T12:44:58;93134.81;;;15.03;40.30
52105;BME280;38103;42.776;23.112;2023-04-02T12:47:23;93128.94;;;15.06;40.57
52105;BME280;38103;42.776;23.112;2023-04-02T12:49:50;93135.28;;;15.11;39.26
52105;BME280;38103;42.776;23.112;2023-04-02T12:52:21;93127.06;;;14.77;39.79
52105;BME280;38103;42.776;23.112;2023-04-02T12:57:41;93115.56;;;15.12;41.01
52105;BME280;38103;42.776;23.112;2023-04-02T13:02:46;93080.47;;;15.10;41.55
52105;BME280;38103;42.776;23.112;2023-04-02T13:05:12;93126.44;;;15.40;38.99
52105;BME280;38103;42.776;23.112;2023-04-02T13:07:55;93121.09;;;15.40;38.20
52105;BME280;38103;42.776;23.112;2023-04-02T13:10:22;93128.16;;;15.30;39.10
52105;BME280;38103;42.776;23.112;2023-04-02T13:12:56;93122.28;;;15.28;40.49
52105;BME280;38103;42.776;23.112;2023-04-02T13:15:26;93118.63;;;15.24;39.71
52105;BME280;38103;42.776;23.112;2023-04-02T13:25:59;93115.91;;;15.29;39.51
52105;BME280;38103;42.776;23.112;2023-04-02T13:28:26;93124.38;;;15.32;40.70
52105;BME280;38103;42.776;23.112;2023-04-02T13:30:51;93115.97;;;15.44;41.43
52105;BME280;38103;42.776;23.112;2023-04-02T13:33:17;93121.09;;;15.40;38.99
52105;BME280;38103;42.776;23.112;2023-04-02T13:35:42;93118.28;;;15.06;39.77
52105;BME280;38103;42.776;23.112;2023-04-02T13:38:08;93122.25;;;15.09;38.67
52105;BME280;38103;42.776;23.112;2023-04-02T13:40:34;93117.72;;;15.10;40.75
52105;BME280;38103;42.776;23.112;2023-04-02T13:43:01;93088.69;;;14.83;39.76
52105;BME280;38103;42.776;23.112;2023-04-02T13:45:31;93111.97;;;15.02;39.64
52105;BME280;38103;42.776;23.112;2023-04-02T13:47:57;93101.06;;;14.99;41.08
52105;BME280;38103;42.776;23.112;2023-04-02T13:50:26;93102.25;;;15.12;41.21
52105;BME280;38103;42.776;23.112;2023-04-02T13:52:53;93105.03;;;15.01;39.76
52105;BME280;38103;42.776;23.112;2023-04-02T13:55:22;93107.19;;;14.99;40.19
52105;BME280;38103;42.776;23.112;2023-04-02T13:57:49;93107.75;;;14.96;41.99
52105;BME280;38103;42.776;23.112;2023-04-02T14:00:16;93107.81;;;14.91;42.40
52105;BME280;38103;42.776;23.112;2023-04-02T14:02:49;93101.88;;;14.99;40.53
52105;BME280;38103;42.776;23.112;2023-04-02T14:05:35;93101.97;;;15.13;40.09
52105;BME280;38103;42.776;23.112;2023-04-02T14:08:08;93105.50;;;15.08;39.80
52105;BME280;38103;42.776;23.112;2023-04-02T14:10:41;93101.16;;;15.13;40.61
52105;BME280;38103;42.776;23.112;2023-04-02T14:16:07;93096.31;;;15.20;39.57
52105;BME280;38103;42.776;23.112;2023-04-02T14:21:39;93097.56;;;15.03;38.80
52105;BME280;38103;42.776;23.112;2023-04-02T14:30:22;93077.59;;;14.76;37.19
52105;BME280;38103;42.776;23.112;2023-04-02T14:35:28;93057.56;;;14.59;38.09
52105;BME280;38103;42.776;23.112;2023-04-02T14:38:08;93088.69;;;14.89;38.25
52105;BME280;38103;42.776;23.112;2023-04-02T14:43:21;93097.75;;;14.82;37.14
52105;BME280;38103;42.776;23.112;2023-04-02T14:45:58;93095.66;;;14.79;37.36
52105;BME280;38103;42.776;23.112;2023-04-02T14:51:38;93099.00;;;14.66;40.36
52105;BME280;38103;42.776;23.112;2023-04-02T14:54:26;93098.75;;;14.62;37.58
52105;BME280;38103;42.776;23.112;2023-04-02T14:56:58;93061.81;;;14.30;37.74
52105;BME280;38103;42.776;23.112;2023-04-02T15:02:11;93102.00;;;14.53;38.11
52105;BME280;38103;42.776;23.112;2023-04-02T15:04:55;93103.50;;;14.40;38.25
52105;BME280;38103;42.776;23.112;2023-04-02T15:07:27;93072.81;;;14.18;37.50
52105;BME280;38103;42.776;23.112;2023-04-02T15:10:07;93077.84;;;14.20;37.41
52105;BME280;38103;42.776;23.112;2023-04-02T15:12:39;93105.59;;;14.38;37.22
52105;BME280;38103;42.776;23.112;2023-04-02T15:15:51;93112.94;;;14.22;37.44
52105;BME280;38103;42.776;23.112;2023-04-02T15:17:51;93103.66;;;14.19;37.53
52105;BME280;38103;42.776;23.112;2023-04-02T15:20:17;93113.38;;;13.94;38.38
52105;BME280;38103;42.776;23.112;2023-04-02T15:23:00;93116.81;;;14.00;39.16
52105;BME280;38103;42.776;23.112;2023-04-02T15:30:53;93113.47;;;13.79;37.93
52105;BME280;38103;42.776;23.112;2023-04-02T15:39:06;93116.09;;;13.84;37.99
52105;BME280;38103;42.776;23.112;2023-04-02T15:44:23;93115.16;;;13.64;39.26
52105;BME280;38103;42.776;23.112;2023-04-02T15:55:20;93122.09;;;13.65;39.53
52105;BME280;38103;42.776;23.112;2023-04-02T16:00:26;93090.63;;;13.32;38.64
52105;BME280;38103;42.776;23.112;2023-04-02T16:05:41;93142.38;;;13.35;39.07
52105;BME280;38103;42.776;23.112;2023-04-02T16:10:40;93137.09;;;13.29;39.31
52105;BME280;38103;42.776;23.112;2023-04-02T16:18:39;93138.75;;;13.10;40.72
52105;BME280;38103;42.776;23.112;2023-04-02T16:21:09;93139.88;;;12.93;40.70
52105;BME280;38103;42.776;23.112;2023-04-02T16:23:38;93137.75;;;12.84;40.64
52105;BME280;38103;42.776;23.112;2023-04-02T16:26:31;93140.41;;;12.79;40.97
52105;BME280;38103;42.776;23.112;2023-04-02T16:45:08;93155.31;;;12.44;42.84
52105;BME280;38103;42.776;23.112;2023-04-02T16:58:39;93167.22;;;12.20;42.72
52105;BME280;38103;42.776;23.112;2023-04-02T17:01:20;93169.84;;;12.04;42.60
52105;BME280;38103;42.776;23.112;2023-04-02T17:06:41;93169.00;;;11.83;42.63
52105;BME280;38103;42.776;23.112;2023-04-02T17:09:38;93176.66;;;11.74;42.88
52105;BME280;38103;42.776;23.112;2023-04-02T17:12:14;93190.13;;;11.57;43.59